createdAt,value
2019-02-02T00:14:48.089Z,95.20
2019-02-02T00:45:04.260Z,95.60
2019-02-02T01:15:10.734Z,95.70
2019-02-02T01:45:21.888Z,96.20
2019-02-02T02:15:25.681Z,96.80
2019-02-02T02:45:29.144Z,98.50
2019-02-02T03:15:32.970Z,99.80
2019-02-02T03:45:36.462Z,99.90
2019-02-02T04:15:40.111Z,99.90
2019-02-02T04:45:45.017Z,99.90
2019-02-02T05:15:48.696Z,99.90
2019-02-02T05:45:52.412Z,99.90
2019-02-02T06:15:55.912Z,99.90
2019-02-02T06:45:59.465Z,99.90
2019-02-02T07:16:02.946Z,99.90
2019-02-02T07:46:14.783Z,99.90
2019-02-02T08:16:13.093Z,99.90
2019-02-02T08:46:16.572Z,99.90
2019-02-02T09:16:20.057Z,99.90
2019-02-02T09:46:23.593Z,99.90
2019-02-02T10:16:27.073Z,99.90
2019-02-02T10:46:30.568Z,99.90
2019-02-02T11:16:34.430Z,99.80
2019-02-02T11:46:37.872Z,98.90
2019-02-02T12:16:41.702Z,96.80
2019-02-02T12:46:45.185Z,96.70
2019-02-02T13:16:50.178Z,96.60
2019-02-02T13:46:54.021Z,96.60
2019-02-02T14:16:57.676Z,96.20
2019-02-02T14:47:01.133Z,95.60
2019-02-02T15:17:04.892Z,96.20
2019-02-02T15:47:08.383Z,96.90
2019-02-02T16:17:11.887Z,97.50
2019-02-02T16:47:15.637Z,98.50
2019-02-02T17:17:19.392Z,99.20
2019-02-02T17:47:22.952Z,99.50
2019-02-02T18:17:27.021Z,99.50
2019-02-02T18:47:30.589Z,99.90
2019-02-02T19:17:34.081Z,99.90
2019-02-02T19:47:37.695Z,99.90
2019-02-02T20:17:41.236Z,99.90
2019-02-02T20:47:44.763Z,99.90
2019-02-02T21:17:48.455Z,99.90
2019-02-02T21:47:51.918Z,99.90
2019-02-02T22:17:55.413Z,99.90
2019-02-02T22:47:59.058Z,99.60
2019-02-02T23:18:03.021Z,99.80
2019-02-02T23:48:06.499Z,99.90
